Malcolm Mc Kinnon Airport
KSSI : now visible

Airfield :











YOU CAN JOIN US ON...

 
LOGIN :

Register | Disclaimer

   EN    FR    IT 

 









Legend :    VFR   Marginal VFR   IFR   Intensive IFR   Very Intensive IFR
Visi :
Ceiling :
>= 8 km
>= 3000ft
5 to 8 km
1000 to 3000 ft
1500m to 5 km
500 to 1000 ft
800 to 1500m
200 to 500 ft
< 800m
< 200 ft
Symbols :   Thunderstorms  Fog  Heavy snow  Heavy precipitations  Wind > 20 kt






- Airport Elevation : 19 ft


KSSI - Malcolm Mc Kinnon

CURRENT METAR :
  • 060715Z AUTO 28008G14KT 10SM CLR 11/06 A3004 RMK AO2

EXPIRED METARs :
  • 060655Z AUTO 29006G12KT 10SM CLR 11/06 A3004 RMK AO2
  • 060635Z AUTO 29007G13KT 10SM CLR 11/06 A3004 RMK AO2
  • 060615Z AUTO 28007KT 240V300 10SM CLR 11/06 A3004 RMK AO2
  • 060555Z AUTO 28005G10KT 10SM CLR 12/07 A3004 RMK AO2
  • 060535Z AUTO 28007KT 10SM CLR 12/07 A3005 RMK AO2
  • 060515Z AUTO 29007G15KT 10SM CLR 13/06 A3004 RMK AO2
  • 060455Z AUTO 29009KT 10SM CLR 12/07 A3004 RMK AO2
  • 060435Z AUTO 26007KT 10SM 12/07 A3004 RMK AO2
  • 060415Z AUTO A3004 RMK AO2 PWINO
  • 060355Z AUTO 27008KT 10SM CLR 12/08 A3005 RMK AO2
  • 060335Z AUTO 26008KT 10SM CLR 13/07 A3006 RMK AO2
  • 060315Z AUTO 26007KT 10SM CLR 13/07 A3005 RMK AO2
  • 060255Z AUTO 27007KT 10SM CLR 13/07 A3006 RMK AO2
  • 060235Z AUTO VRB05KT 10SM CLR 13/07 A3006 RMK AO2
  • 060215Z AUTO 28006KT 10SM CLR 14/07 A3006 RMK AO2

TAF KSSI
Valid from the 06 at 06:00 until the 07 at 06:00 UTC


060534Z 0606/0706 28006KT P6SM SCT250
FM061300 32012G20KT P6SM FEW250
FM062300 VRB05KT P6SM SKC
KZJX FIR / North America



MET'MAP, your aeronautical weather chart ! - Copyright ORBIFLY December 2007 - Disclaimer

ORBIFLY MET'MAP TEAM :

Programming & Development : Alexandra Zaïnal
Original concept : Baudouin d'Aumeries
Technical & hardware support : Manuel Goepfert
Assistance : Marc-Olivier Méhu




SOURCES & CREDITS :

   NOAA       Earth
Advisory